Terminal Aerodrome Forecast
Issued by NWS

Home | Current Version | Previous Version | Text Only | Print | Product List | Glossary On
Versions: 1 2 3 4 5 6 7 8 9 10 11 12 13 14 15 16 17 18 19
000
FTUS43 KSGF 252300
TAFBBG
TAF
KBBG 252320Z 2600/2624 30010KT P6SM BKN070
     FM260600 33006KT P6SM SCT007 BKN017
     FM260800 34005KT 5SM BR OVC007
     FM261400 03006KT P6SM SCT007 OVC015
     FM261700 05010KT P6SM BKN050=

USA.gov is the U.S. government's official web portal to all federal, state and local government web resources and services.